sensor_id;sensor_type;location;lat;lon;timestamp;pressure;altitude;pressure_sealevel;temperature;humidity
52032;BME280;38044;45.148;39.604;2023-02-04T00:01:36;100965.94;;;2.69;84.26
52032;BME280;38044;45.148;39.604;2023-02-04T00:04:02;100977.25;;;2.76;84.57
52032;BME280;38044;45.148;39.604;2023-02-04T00:06:28;100866.84;;;2.10;84.34
52032;BME280;38044;45.148;39.604;2023-02-04T00:08:54;100987.75;;;2.83;84.98
52032;BME280;38044;45.148;39.604;2023-02-04T00:11:20;100998.75;;;2.86;84.79
52032;BME280;38044;45.148;39.604;2023-02-04T00:13:46;100976.22;;;2.77;84.99
52032;BME280;38044;45.148;39.604;2023-02-04T00:16:12;101004.16;;;2.91;85.22
52032;BME280;38044;45.148;39.604;2023-02-04T00:18:38;100985.81;;;2.78;85.18
52032;BME280;38044;45.148;39.604;2023-02-04T00:21:04;100991.34;;;2.88;85.23
52032;BME280;38044;45.148;39.604;2023-02-04T00:23:30;100963.63;;;2.61;85.20
52032;BME280;38044;45.148;39.604;2023-02-04T00:25:56;100981.03;;;2.68;85.50
52032;BME280;38044;45.148;39.604;2023-02-04T00:28:21;100999.31;;;2.77;85.58
52032;BME280;38044;45.148;39.604;2023-02-04T00:30:47;100952.38;;;2.47;85.45
52032;BME280;38044;45.148;39.604;2023-02-04T00:33:13;100993.38;;;2.63;85.82
52032;BME280;38044;45.148;39.604;2023-02-04T00:35:39;100940.81;;;2.30;85.82
52032;BME280;38044;45.148;39.604;2023-02-04T00:38:05;101011.66;;;2.83;86.09
52032;BME280;38044;45.148;39.604;2023-02-04T00:40:31;100943.94;;;2.38;86.00
52032;BME280;38044;45.148;39.604;2023-02-04T00:42:57;100938.19;;;2.41;85.76
52032;BME280;38044;45.148;39.604;2023-02-04T00:45:23;101004.75;;;2.93;85.90
52032;BME280;38044;45.148;39.604;2023-02-04T00:47:49;100992.50;;;2.81;85.83
52032;BME280;38044;45.148;39.604;2023-02-04T00:50:15;101012.13;;;2.91;85.80
52032;BME280;38044;45.148;39.604;2023-02-04T00:52:41;101001.03;;;2.71;85.84
52032;BME280;38044;45.148;39.604;2023-02-04T00:55:07;100922.09;;;2.24;85.99
52032;BME280;38044;45.148;39.604;2023-02-04T00:57:35;101031.88;;;2.84;86.11
52032;BME280;38044;45.148;39.604;2023-02-04T01:00:01;100887.63;;;1.94;86.04
52032;BME280;38044;45.148;39.604;2023-02-04T01:02:27;101027.25;;;2.79;86.16
52032;BME280;38044;45.148;39.604;2023-02-04T01:04:52;101021.94;;;2.79;86.14
52032;BME280;38044;45.148;39.604;2023-02-04T01:07:18;100934.69;;;2.29;86.20
52032;BME280;38044;45.148;39.604;2023-02-04T01:09:44;100993.75;;;2.66;86.49
52032;BME280;38044;45.148;39.604;2023-02-04T01:12:10;100916.34;;;2.28;86.31
52032;BME280;38044;45.148;39.604;2023-02-04T01:14:36;101025.31;;;2.86;86.19
52032;BME280;38044;45.148;39.604;2023-02-04T01:17:02;100956.06;;;2.46;86.22
52032;BME280;38044;45.148;39.604;2023-02-04T01:19:27;100928.94;;;2.32;86.05
52032;BME280;38044;45.148;39.604;2023-02-04T01:21:53;100924.09;;;2.29;85.99
52032;BME280;38044;45.148;39.604;2023-02-04T01:24:19;101036.50;;;3.00;85.88
52032;BME280;38044;45.148;39.604;2023-02-04T01:26:45;100947.75;;;2.42;85.89
52032;BME280;38044;45.148;39.604;2023-02-04T01:29:11;101049.56;;;3.02;85.95
52032;BME280;38044;45.148;39.604;2023-02-04T01:31:37;100970.72;;;2.48;85.71
52032;BME280;38044;45.148;39.604;2023-02-04T01:34:04;101070.59;;;3.03;85.74
52032;BME280;38044;45.148;39.604;2023-02-04T01:36:30;101025.03;;;2.76;86.09
52032;BME280;38044;45.148;39.604;2023-02-04T01:38:55;101060.97;;;2.90;85.75
52032;BME280;38044;45.148;39.604;2023-02-04T01:41:22;101054.53;;;2.86;86.04
52032;BME280;38044;45.148;39.604;2023-02-04T01:43:48;101064.56;;;2.96;85.77
52032;BME280;38044;45.148;39.604;2023-02-04T01:46:16;101034.28;;;2.85;85.50
52032;BME280;38044;45.148;39.604;2023-02-04T01:48:42;101046.78;;;2.85;85.16
52032;BME280;38044;45.148;39.604;2023-02-04T01:51:11;101025.50;;;2.73;85.29
52032;BME280;38044;45.148;39.604;2023-02-04T01:53:38;101054.16;;;2.94;85.57
52032;BME280;38044;45.148;39.604;2023-02-04T01:56:19;100930.28;;;2.23;85.52
52032;BME280;38044;45.148;39.604;2023-02-04T01:58:46;101064.09;;;2.87;85.49
52032;BME280;38044;45.148;39.604;2023-02-04T02:01:39;101052.22;;;2.90;85.90
52032;BME280;38044;45.148;39.604;2023-02-04T02:04:16;101065.59;;;2.83;85.50
52032;BME280;38044;45.148;39.604;2023-02-04T02:06:54;101055.53;;;2.85;86.12
52032;BME280;38044;45.148;39.604;2023-02-04T02:09:22;101001.28;;;2.39;85.88
52032;BME280;38044;45.148;39.604;2023-02-04T02:11:49;101020.50;;;2.65;85.90
52032;BME280;38044;45.148;39.604;2023-02-04T02:14:15;101034.41;;;2.79;85.48
52032;BME280;38044;45.148;39.604;2023-02-04T02:16:41;100948.28;;;2.21;85.37
52032;BME280;38044;45.148;39.604;2023-02-04T02:19:09;101049.31;;;2.91;85.03
52032;BME280;38044;45.148;39.604;2023-02-04T02:21:46;101056.97;;;3.00;84.63
52032;BME280;38044;45.148;39.604;2023-02-04T02:24:30;101059.63;;;3.00;84.49
52032;BME280;38044;45.148;39.604;2023-02-04T02:26:59;101053.94;;;2.84;84.22
52032;BME280;38044;45.148;39.604;2023-02-04T02:29:26;101049.59;;;2.71;84.25
52032;BME280;38044;45.148;39.604;2023-02-04T02:31:53;100945.84;;;1.89;84.21
52032;BME280;38044;45.148;39.604;2023-02-04T02:34:22;101038.44;;;2.39;84.61
52032;BME280;38044;45.148;39.604;2023-02-04T02:36:49;101028.13;;;2.31;84.99
52032;BME280;38044;45.148;39.604;2023-02-04T02:39:15;101035.06;;;2.32;85.31
52032;BME280;38044;45.148;39.604;2023-02-04T02:41:41;100977.94;;;1.99;85.42
52032;BME280;38044;45.148;39.604;2023-02-04T02:44:08;101060.88;;;2.55;85.55
52032;BME280;38044;45.148;39.604;2023-02-04T02:46:34;101037.31;;;2.47;85.54
52032;BME280;38044;45.148;39.604;2023-02-04T02:49:00;101037.22;;;2.54;85.52
52032;BME280;38044;45.148;39.604;2023-02-04T02:51:27;101043.34;;;2.66;85.71
52032;BME280;38044;45.148;39.604;2023-02-04T02:53:54;101027.78;;;2.58;85.28
52032;BME280;38044;45.148;39.604;2023-02-04T02:56:20;100989.72;;;2.34;84.89
52032;BME280;38044;45.148;39.604;2023-02-04T02:58:46;100982.06;;;2.25;84.87
52032;BME280;38044;45.148;39.604;2023-02-04T03:01:12;101054.91;;;2.71;84.17
52032;BME280;38044;45.148;39.604;2023-02-04T03:03:44;101049.38;;;2.61;83.75
52032;BME280;38044;45.148;39.604;2023-02-04T03:06:12;101066.81;;;2.69;83.71
52032;BME280;38044;45.148;39.604;2023-02-04T03:08:39;101048.88;;;2.34;83.67
52032;BME280;38044;45.148;39.604;2023-02-04T03:11:06;101051.59;;;2.16;83.48
52032;BME280;38044;45.148;39.604;2023-02-04T03:13:32;101047.63;;;2.07;83.29
52032;BME280;38044;45.148;39.604;2023-02-04T03:15:58;101077.16;;;2.10;83.39
52032;BME280;38044;45.148;39.604;2023-02-04T03:18:25;101082.22;;;2.12;83.52
52032;BME280;38044;45.148;39.604;2023-02-04T03:20:52;101073.75;;;2.03;83.60
52032;BME280;38044;45.148;39.604;2023-02-04T03:23:18;101073.34;;;2.06;83.51
52032;BME280;38044;45.148;39.604;2023-02-04T03:25:44;101022.88;;;1.76;83.49
52032;BME280;38044;45.148;39.604;2023-02-04T03:28:10;101037.59;;;1.90;83.39
52032;BME280;38044;45.148;39.604;2023-02-04T03:30:36;101070.16;;;2.16;83.20
52032;BME280;38044;45.148;39.604;2023-02-04T03:33:02;101054.53;;;2.08;82.73
52032;BME280;38044;45.148;39.604;2023-02-04T03:35:28;100952.28;;;1.45;82.57
52032;BME280;38044;45.148;39.604;2023-02-04T03:37:54;101022.59;;;1.84;82.23
52032;BME280;38044;45.148;39.604;2023-02-04T03:40:20;101087.47;;;2.18;82.37
52032;BME280;38044;45.148;39.604;2023-02-04T03:42:46;101061.53;;;2.02;82.69
52032;BME280;38044;45.148;39.604;2023-02-04T03:45:12;100966.41;;;1.39;82.40
52032;BME280;38044;45.148;39.604;2023-02-04T03:47:37;101081.13;;;2.01;82.77
52032;BME280;38044;45.148;39.604;2023-02-04T03:50:04;101068.66;;;1.83;82.40
52032;BME280;38044;45.148;39.604;2023-02-04T03:52:30;101044.44;;;1.61;82.91
52032;BME280;38044;45.148;39.604;2023-02-04T03:54:56;101020.47;;;1.31;82.91
52032;BME280;38044;45.148;39.604;2023-02-04T03:57:21;100978.00;;;0.94;82.89
52032;BME280;38044;45.148;39.604;2023-02-04T03:59:47;101094.56;;;1.63;83.46
52032;BME280;38044;45.148;39.604;2023-02-04T04:02:13;101085.72;;;1.50;83.43
52032;BME280;38044;45.148;39.604;2023-02-04T04:04:39;101057.38;;;1.26;83.35
52032;BME280;38044;45.148;39.604;2023-02-04T04:07:05;100957.75;;;0.56;83.47
52032;BME280;38044;45.148;39.604;2023-02-04T04:09:31;101062.13;;;1.24;83.93
52032;BME280;38044;45.148;39.604;2023-02-04T04:11:57;101050.19;;;1.08;84.14
52032;BME280;38044;45.148;39.604;2023-02-04T04:14:22;101081.09;;;1.21;83.91
52032;BME280;38044;45.148;39.604;2023-02-04T04:16:48;100974.28;;;0.52;84.24
52032;BME280;38044;45.148;39.604;2023-02-04T04:19:14;101014.66;;;0.65;83.96
52032;BME280;38044;45.148;39.604;2023-02-04T04:21:40;101089.16;;;1.01;84.04
52032;BME280;38044;45.148;39.604;2023-02-04T04:24:06;100998.97;;;0.39;84.13
52032;BME280;38044;45.148;39.604;2023-02-04T04:26:31;101016.63;;;0.45;84.18
52032;BME280;38044;45.148;39.604;2023-02-04T04:28:57;101004.50;;;0.31;84.29
52032;BME280;38044;45.148;39.604;2023-02-04T04:31:23;101008.81;;;0.25;84.38
52032;BME280;38044;45.148;39.604;2023-02-04T04:33:49;100985.28;;;0.10;84.88
52032;BME280;38044;45.148;39.604;2023-02-04T04:36:15;101089.19;;;0.62;84.73
52032;BME280;38044;45.148;39.604;2023-02-04T04:39:05;101107.22;;;0.79;85.31
52032;BME280;38044;45.148;39.604;2023-02-04T04:44:18;101095.72;;;0.60;85.15
52032;BME280;38044;45.148;39.604;2023-02-04T04:46:44;101102.00;;;0.65;85.58
52032;BME280;38044;45.148;39.604;2023-02-04T04:49:10;101091.88;;;0.56;85.53
52032;BME280;38044;45.148;39.604;2023-02-04T04:51:36;101023.94;;;0.05;85.79
52032;BME280;38044;45.148;39.604;2023-02-04T04:54:02;101122.59;;;0.63;85.83
52032;BME280;38044;45.148;39.604;2023-02-04T04:56:27;100985.84;;;-0.19;86.02
52032;BME280;38044;45.148;39.604;2023-02-04T04:58:53;101064.91;;;0.34;85.89
52032;BME280;38044;45.148;39.604;2023-02-04T05:01:19;101130.47;;;0.70;85.70
52032;BME280;38044;45.148;39.604;2023-02-04T05:03:47;101118.91;;;0.64;85.73
52032;BME280;38044;45.148;39.604;2023-02-04T05:06:13;101094.00;;;0.40;85.72
52032;BME280;38044;45.148;39.604;2023-02-04T05:08:39;100947.34;;;-0.54;85.69
52032;BME280;38044;45.148;39.604;2023-02-04T05:11:05;101115.31;;;0.45;85.78
52032;BME280;38044;45.148;39.604;2023-02-04T05:13:31;101078.63;;;0.17;85.99
52032;BME280;38044;45.148;39.604;2023-02-04T05:15:56;100932.34;;;-0.73;85.58
52032;BME280;38044;45.148;39.604;2023-02-04T05:18:22;101090.19;;;0.23;85.34
52032;BME280;38044;45.148;39.604;2023-02-04T05:20:48;101120.16;;;0.55;85.72
52032;BME280;38044;45.148;39.604;2023-02-04T05:23:14;100923.75;;;-0.55;85.72
52032;BME280;38044;45.148;39.604;2023-02-04T05:25:41;101041.34;;;0.32;85.79
52032;BME280;38044;45.148;39.604;2023-02-04T05:28:07;101077.00;;;0.61;85.44
52032;BME280;38044;45.148;39.604;2023-02-04T05:30:33;100938.69;;;-0.22;85.01
52032;BME280;38044;45.148;39.604;2023-02-04T05:32:58;100926.25;;;-0.15;85.16
52032;BME280;38044;45.148;39.604;2023-02-04T05:35:24;100944.44;;;0.06;85.14
52032;BME280;38044;45.148;39.604;2023-02-04T05:37:50;101004.38;;;0.51;84.82
52032;BME280;38044;45.148;39.604;2023-02-04T05:40:16;100923.31;;;0.06;84.77
52032;BME280;38044;45.148;39.604;2023-02-04T05:42:42;101076.66;;;1.15;84.62
52032;BME280;38044;45.148;39.604;2023-02-04T05:45:16;100889.75;;;0.07;84.34
52032;BME280;38044;45.148;39.604;2023-02-04T05:47:43;101075.78;;;1.21;84.56
52032;BME280;38044;45.148;39.604;2023-02-04T05:50:09;101096.41;;;1.37;84.69
52032;BME280;38044;45.148;39.604;2023-02-04T05:52:35;101081.88;;;1.46;84.91
52032;BME280;38044;45.148;39.604;2023-02-04T05:55:02;101037.03;;;1.26;84.88
52032;BME280;38044;45.148;39.604;2023-02-04T05:57:27;100946.94;;;0.83;84.43
52032;BME280;38044;45.148;39.604;2023-02-04T05:59:53;100944.47;;;0.88;83.84
52032;BME280;38044;45.148;39.604;2023-02-04T06:02:19;101039.59;;;1.58;83.30
52032;BME280;38044;45.148;39.604;2023-02-04T06:04:45;101105.97;;;2.07;82.50
52032;BME280;38044;45.148;39.604;2023-02-04T06:07:11;101091.97;;;2.18;82.38
52032;BME280;38044;45.148;39.604;2023-02-04T06:09:36;101111.78;;;2.34;81.93
52032;BME280;38044;45.148;39.604;2023-02-04T06:12:02;101079.88;;;2.03;81.90
52032;BME280;38044;45.148;39.604;2023-02-04T06:14:28;101111.41;;;2.30;81.74
52032;BME280;38044;45.148;39.604;2023-02-04T06:16:54;101097.53;;;2.28;81.94
52032;BME280;38044;45.148;39.604;2023-02-04T06:19:19;101107.16;;;2.29;82.32
52032;BME280;38044;45.148;39.604;2023-02-04T06:21:45;101085.91;;;2.11;82.40
52032;BME280;38044;45.148;39.604;2023-02-04T06:24:11;101105.06;;;2.31;82.60
52032;BME280;38044;45.148;39.604;2023-02-04T06:26:37;101033.19;;;1.84;82.43
52032;BME280;38044;45.148;39.604;2023-02-04T06:29:03;101074.72;;;2.27;82.58
52032;BME280;38044;45.148;39.604;2023-02-04T06:31:28;101092.09;;;2.41;82.54
52032;BME280;38044;45.148;39.604;2023-02-04T06:33:54;101103.53;;;2.72;82.04
52032;BME280;38044;45.148;39.604;2023-02-04T06:36:20;101094.06;;;2.76;81.77
52032;BME280;38044;45.148;39.604;2023-02-04T06:38:46;101112.03;;;2.92;81.23
52032;BME280;38044;45.148;39.604;2023-02-04T06:41:11;101065.88;;;2.63;80.97
52032;BME280;38044;45.148;39.604;2023-02-04T06:43:37;100973.38;;;2.07;80.68
52032;BME280;38044;45.148;39.604;2023-02-04T06:46:03;101104.25;;;2.79;80.64
52032;BME280;38044;45.148;39.604;2023-02-04T06:48:29;101114.31;;;2.89;80.80
52032;BME280;38044;45.148;39.604;2023-02-04T06:50:55;101113.16;;;2.85;80.95
52032;BME280;38044;45.148;39.604;2023-02-04T06:53:20;101117.66;;;2.84;81.01
52032;BME280;38044;45.148;39.604;2023-02-04T06:55:46;101091.28;;;2.71;80.98
52032;BME280;38044;45.148;39.604;2023-02-04T06:58:12;101073.91;;;2.57;81.05
52032;BME280;38044;45.148;39.604;2023-02-04T07:00:38;101106.25;;;2.65;80.95
52032;BME280;38044;45.148;39.604;2023-02-04T07:03:04;101121.97;;;2.67;80.99
52032;BME280;38044;45.148;39.604;2023-02-04T07:05:32;101119.69;;;2.70;80.67
52032;BME280;38044;45.148;39.604;2023-02-04T07:07:58;101089.59;;;2.46;80.76
52032;BME280;38044;45.148;39.604;2023-02-04T07:10:24;101063.19;;;2.33;80.71
52032;BME280;38044;45.148;39.604;2023-02-04T07:12:49;100991.38;;;1.86;80.98
52032;BME280;38044;45.148;39.604;2023-02-04T07:15:15;101127.44;;;2.72;80.92
52032;BME280;38044;45.148;39.604;2023-02-04T07:17:41;101114.16;;;2.72;80.87
52032;BME280;38044;45.148;39.604;2023-02-04T07:20:08;100976.31;;;1.80;80.96
52032;BME280;38044;45.148;39.604;2023-02-04T07:22:34;101124.31;;;2.75;81.11
52032;BME280;38044;45.148;39.604;2023-02-04T07:25:00;101102.44;;;2.61;80.84
52032;BME280;38044;45.148;39.604;2023-02-04T07:27:26;101145.38;;;2.88;81.06
52032;BME280;38044;45.148;39.604;2023-02-04T07:29:52;100976.22;;;1.75;80.58
52032;BME280;38044;45.148;39.604;2023-02-04T07:32:17;101156.53;;;2.79;80.99
52032;BME280;38044;45.148;39.604;2023-02-04T07:34:43;101110.50;;;2.36;80.99
52032;BME280;38044;45.148;39.604;2023-02-04T07:37:09;101165.72;;;2.64;81.13
52032;BME280;38044;45.148;39.604;2023-02-04T07:39:35;101044.88;;;1.76;80.80
52032;BME280;38044;45.148;39.604;2023-02-04T07:42:00;101122.59;;;2.14;81.10
52032;BME280;38044;45.148;39.604;2023-02-04T07:44:26;101170.66;;;2.42;81.56
52032;BME280;38044;45.148;39.604;2023-02-04T07:46:52;101113.59;;;1.96;81.51
52032;BME280;38044;45.148;39.604;2023-02-04T07:49:18;101166.81;;;2.20;81.59
52032;BME280;38044;45.148;39.604;2023-02-04T07:51:44;101144.25;;;2.11;81.45
52032;BME280;38044;45.148;39.604;2023-02-04T07:54:09;101060.81;;;1.51;81.52
52032;BME280;38044;45.148;39.604;2023-02-04T07:56:35;101120.44;;;1.86;81.65
52032;BME280;38044;45.148;39.604;2023-02-04T07:59:01;101179.50;;;2.18;81.94
52032;BME280;38044;45.148;39.604;2023-02-04T08:01:27;101181.13;;;2.19;81.91
52032;BME280;38044;45.148;39.604;2023-02-04T08:03:52;101079.59;;;1.50;81.79
52032;BME280;38044;45.148;39.604;2023-02-04T08:06:18;101165.56;;;2.04;82.04
52032;BME280;38044;45.148;39.604;2023-02-04T08:08:44;101167.25;;;1.98;82.25
52032;BME280;38044;45.148;39.604;2023-02-04T08:11:10;101170.50;;;2.00;82.28
52032;BME280;38044;45.148;39.604;2023-02-04T08:13:36;101183.59;;;1.95;82.47
52032;BME280;38044;45.148;39.604;2023-02-04T08:16:01;101114.97;;;1.62;82.38
52032;BME280;38044;45.148;39.604;2023-02-04T08:18:27;101181.69;;;2.02;82.50
52032;BME280;38044;45.148;39.604;2023-02-04T08:20:53;101168.22;;;2.04;82.51
52032;BME280;38044;45.148;39.604;2023-02-04T08:23:19;101166.38;;;2.05;82.43
52032;BME280;38044;45.148;39.604;2023-02-04T08:25:45;101142.03;;;1.89;82.27
52032;BME280;38044;45.148;39.604;2023-02-04T08:28:10;101169.53;;;2.13;82.40
52032;BME280;38044;45.148;39.604;2023-02-04T08:30:36;101056.84;;;1.42;82.14
52032;BME280;38044;45.148;39.604;2023-02-04T08:33:02;101155.66;;;1.93;82.13
52032;BME280;38044;45.148;39.604;2023-02-04T08:35:28;101165.56;;;2.04;82.42
52032;BME280;38044;45.148;39.604;2023-02-04T08:37:54;101121.91;;;1.82;82.49
52032;BME280;38044;45.148;39.604;2023-02-04T08:40:19;101169.91;;;2.17;82.45
52032;BME280;38044;45.148;39.604;2023-02-04T08:42:45;101165.28;;;2.12;82.36
52032;BME280;38044;45.148;39.604;2023-02-04T08:45:11;101144.88;;;2.13;82.29
52032;BME280;38044;45.148;39.604;2023-02-04T08:47:37;101180.03;;;2.27;82.28
52032;BME280;38044;45.148;39.604;2023-02-04T08:50:03;101121.13;;;1.99;82.34
52032;BME280;38044;45.148;39.604;2023-02-04T08:52:29;101159.44;;;2.40;82.37
52032;BME280;38044;45.148;39.604;2023-02-04T08:54:54;101117.59;;;2.24;81.87
52032;BME280;38044;45.148;39.604;2023-02-04T08:57:20;101112.00;;;2.32;81.79
52032;BME280;38044;45.148;39.604;2023-02-04T08:59:46;101128.13;;;2.49;81.58
52032;BME280;38044;45.148;39.604;2023-02-04T09:02:12;101136.88;;;2.68;81.41
52032;BME280;38044;45.148;39.604;2023-02-04T09:04:38;101024.50;;;1.95;81.10
52032;BME280;38044;45.148;39.604;2023-02-04T09:07:03;101123.34;;;2.58;80.89
52032;BME280;38044;45.148;39.604;2023-02-04T09:09:29;101107.56;;;2.44;80.99
52032;BME280;38044;45.148;39.604;2023-02-04T09:11:55;101000.19;;;1.80;81.02
52032;BME280;38044;45.148;39.604;2023-02-04T09:14:21;101148.38;;;2.62;80.96
52032;BME280;38044;45.148;39.604;2023-02-04T09:16:46;101139.09;;;2.53;81.43
52032;BME280;38044;45.148;39.604;2023-02-04T09:19:13;101018.63;;;1.75;81.24
52032;BME280;38044;45.148;39.604;2023-02-04T09:21:41;100984.13;;;1.56;81.22
52032;BME280;38044;45.148;39.604;2023-02-04T09:24:07;101122.72;;;2.56;81.36
52032;BME280;38044;45.148;39.604;2023-02-04T09:26:33;101127.03;;;2.68;81.28
52032;BME280;38044;45.148;39.604;2023-02-04T09:28:58;101102.34;;;2.68;81.42
52032;BME280;38044;45.148;39.604;2023-02-04T09:31:24;101132.84;;;3.07;81.08
52032;BME280;38044;45.148;39.604;2023-02-04T09:33:50;101129.31;;;3.25;80.64
52032;BME280;38044;45.148;39.604;2023-02-04T09:36:15;101123.81;;;3.38;80.14
52032;BME280;38044;45.148;39.604;2023-02-04T09:38:41;101117.75;;;3.31;79.59
52032;BME280;38044;45.148;39.604;2023-02-04T09:41:09;101113.84;;;3.34;79.97
52032;BME280;38044;45.148;39.604;2023-02-04T09:43:41;100963.81;;;2.47;79.95
52032;BME280;38044;45.148;39.604;2023-02-04T09:46:28;101117.22;;;3.53;80.02
52032;BME280;38044;45.148;39.604;2023-02-04T09:48:56;101068.91;;;3.21;80.11
52032;BME280;38044;45.148;39.604;2023-02-04T09:51:28;101052.50;;;3.12;80.29
52032;BME280;38044;45.148;39.604;2023-02-04T09:54:01;101104.06;;;3.58;80.18
52032;BME280;38044;45.148;39.604;2023-02-04T09:56:29;101058.38;;;3.37;80.28
52032;BME280;38044;45.148;39.604;2023-02-04T09:58:55;101049.84;;;3.35;80.27
52032;BME280;38044;45.148;39.604;2023-02-04T10:01:21;101095.16;;;3.64;80.47
52032;BME280;38044;45.148;39.604;2023-02-04T10:03:48;101066.72;;;3.53;80.35
52032;BME280;38044;45.148;39.604;2023-02-04T10:06:20;101079.66;;;3.84;80.08
52032;BME280;38044;45.148;39.604;2023-02-04T10:08:47;101060.69;;;3.93;80.08
52032;BME280;38044;45.148;39.604;2023-02-04T10:11:15;101096.66;;;4.36;80.05
52032;BME280;38044;45.148;39.604;2023-02-04T10:13:45;101076.47;;;4.51;79.62
52032;BME280;38044;45.148;39.604;2023-02-04T10:16:23;101093.88;;;4.71;78.95
52032;BME280;38044;45.148;39.604;2023-02-04T10:18:58;101016.44;;;4.15;79.22
52032;BME280;38044;45.148;39.604;2023-02-04T10:21:32;101045.31;;;4.23;79.21
52032;BME280;38044;45.148;39.604;2023-02-04T10:24:00;101081.44;;;4.19;79.90
52032;BME280;38044;45.148;39.604;2023-02-04T10:26:29;100915.84;;;3.08;80.11
52032;BME280;38044;45.148;39.604;2023-02-04T10:29:04;100975.19;;;3.49;80.31
52032;BME280;38044;45.148;39.604;2023-02-04T10:31:38;101069.50;;;4.22;80.85
52032;BME280;38044;45.148;39.604;2023-02-04T10:34:11;100939.59;;;3.50;80.58
52032;BME280;38044;45.148;39.604;2023-02-04T10:36:38;101094.50;;;4.61;80.93
52032;BME280;38044;45.148;39.604;2023-02-04T10:39:15;101086.47;;;4.44;80.44
52032;BME280;38044;45.148;39.604;2023-02-04T10:41:56;101058.16;;;4.26;80.46
52032;BME280;38044;45.148;39.604;2023-02-04T10:44:29;101102.06;;;4.53;80.36
52032;BME280;38044;45.148;39.604;2023-02-04T10:49:25;101078.06;;;4.24;80.49
52032;BME280;38044;45.148;39.604;2023-02-04T10:51:51;100962.50;;;3.39;80.48
52032;BME280;38044;45.148;39.604;2023-02-04T10:54:23;101117.09;;;4.18;80.64
52032;BME280;38044;45.148;39.604;2023-02-04T10:59:28;101055.13;;;3.82;80.92
52032;BME280;38044;45.148;39.604;2023-02-04T11:01:55;100955.69;;;3.20;81.35
52032;BME280;38044;45.148;39.604;2023-02-04T11:04:22;101111.53;;;4.08;81.41
52032;BME280;38044;45.148;39.604;2023-02-04T11:06:49;101099.16;;;4.02;81.62
52032;BME280;38044;45.148;39.604;2023-02-04T11:09:17;101090.16;;;3.91;81.70
52032;BME280;38044;45.148;39.604;2023-02-04T11:11:48;100970.56;;;3.09;81.88
52032;BME280;38044;45.148;39.604;2023-02-04T11:14:28;101091.44;;;3.89;81.89
52032;BME280;38044;45.148;39.604;2023-02-04T11:16:56;100945.75;;;2.91;81.58
52032;BME280;38044;45.148;39.604;2023-02-04T11:19:35;101062.66;;;3.62;81.96
52032;BME280;38044;45.148;39.604;2023-02-04T11:22:07;100972.78;;;3.00;81.95
52032;BME280;38044;45.148;39.604;2023-02-04T11:24:33;101071.56;;;3.56;82.26
52032;BME280;38044;45.148;39.604;2023-02-04T11:27:19;101117.34;;;3.93;82.54
52032;BME280;38044;45.148;39.604;2023-02-04T11:29:45;101033.91;;;3.35;82.25
52032;BME280;38044;45.148;39.604;2023-02-04T11:32:33;101097.69;;;3.82;82.03
52032;BME280;38044;45.148;39.604;2023-02-04T11:35:16;101088.31;;;3.80;82.18
52032;BME280;38044;45.148;39.604;2023-02-04T11:37:45;100997.50;;;3.36;82.24
52032;BME280;38044;45.148;39.604;2023-02-04T11:40:31;101095.22;;;4.16;82.27
52032;BME280;38044;45.148;39.604;2023-02-04T11:43:02;101052.59;;;3.88;81.95
52032;BME280;38044;45.148;39.604;2023-02-04T11:45:34;101080.66;;;4.07;81.85
52032;BME280;38044;45.148;39.604;2023-02-04T11:48:03;101091.63;;;4.11;81.64
52032;BME280;38044;45.148;39.604;2023-02-04T11:50:35;101092.31;;;4.06;81.56
52032;BME280;38044;45.148;39.604;2023-02-04T11:53:04;100976.94;;;3.31;81.04
52032;BME280;38044;45.148;39.604;2023-02-04T11:55:34;101038.38;;;3.70;81.06
52032;BME280;38044;45.148;39.604;2023-02-04T11:58:01;101029.03;;;3.56;80.77
52032;BME280;38044;45.148;39.604;2023-02-04T12:00:30;100983.88;;;3.21;81.14
52032;BME280;38044;45.148;39.604;2023-02-04T12:03:00;101105.66;;;3.94;81.47
52032;BME280;38044;45.148;39.604;2023-02-04T12:05:45;101106.44;;;3.95;81.03
52032;BME280;38044;45.148;39.604;2023-02-04T12:08:26;101072.03;;;3.76;80.88
52032;BME280;38044;45.148;39.604;2023-02-04T12:10:58;101090.75;;;3.81;81.24
52032;BME280;38044;45.148;39.604;2023-02-04T12:13:25;101100.00;;;3.91;80.76
52032;BME280;38044;45.148;39.604;2023-02-04T12:15:57;101099.53;;;3.94;81.08
52032;BME280;38044;45.148;39.604;2023-02-04T12:18:23;101084.38;;;3.82;80.76
52032;BME280;38044;45.148;39.604;2023-02-04T12:20:53;101024.53;;;3.45;80.92
52032;BME280;38044;45.148;39.604;2023-02-04T12:23:19;100939.88;;;2.89;80.78
52032;BME280;38044;45.148;39.604;2023-02-04T12:25:44;101094.00;;;3.83;80.92
52032;BME280;38044;45.148;39.604;2023-02-04T12:28:10;101124.16;;;4.01;80.63
52032;BME280;38044;45.148;39.604;2023-02-04T12:30:36;101061.06;;;3.73;80.52
52032;BME280;38044;45.148;39.604;2023-02-04T12:33:05;101111.41;;;4.03;80.49
52032;BME280;38044;45.148;39.604;2023-02-04T12:35:32;101109.94;;;4.07;80.49
52032;BME280;38044;45.148;39.604;2023-02-04T12:37:58;101100.31;;;4.06;80.60
52032;BME280;38044;45.148;39.604;2023-02-04T12:40:24;100936.88;;;2.98;80.13
52032;BME280;38044;45.148;39.604;2023-02-04T12:42:49;101101.25;;;4.00;80.21
52032;BME280;38044;45.148;39.604;2023-02-04T12:45:16;101002.22;;;3.34;79.99
52032;BME280;38044;45.148;39.604;2023-02-04T12:47:42;101055.41;;;3.69;80.44
52032;BME280;38044;45.148;39.604;2023-02-04T12:50:10;101103.69;;;4.01;80.73
52032;BME280;38044;45.148;39.604;2023-02-04T12:52:37;100899.22;;;2.77;80.39
52032;BME280;38044;45.148;39.604;2023-02-04T12:55:05;100879.34;;;2.56;80.22
52032;BME280;38044;45.148;39.604;2023-02-04T12:57:33;100947.50;;;2.98;80.74
52032;BME280;38044;45.148;39.604;2023-02-04T12:59:59;101056.91;;;3.53;80.93